Time;durP1;ratioP1;P1;durP2;ratioP2;P2;SDS_P1;SDS_P2;PMS_P1;PMS_P2;Temp;Humidity;BMP_temperature;BMP_pressure;BME280_temperature;BME280_humidity;BME280_pressure;Samples;Min_cycle;Max_cycle;Signal;HPM_P1;HPM_P2
2023/09/25 00:01:32;;;;;;;12.82;4.20;;;16.70;90.70;;;;;;7383594;19;20023;-75
2023/09/25 00:04:01;;;;;;;12.90;5.30;;;16.60;90.70;;;;;;7386386;19;20045;-75
2023/09/25 00:06:30;;;;;;;8.75;4.57;;;16.60;90.70;;;;;;7383398;19;20322;-76
2023/09/25 00:09:01;;;;;;;8.60;4.30;;;16.60;90.80;;;;;;7383839;19;20243;-76
2023/09/25 00:11:30;;;;;;;8.75;4.13;;;16.60;90.80;;;;;;7381330;19;20006;-76
2023/09/25 00:13:59;;;;;;;10.65;4.07;;;16.60;90.70;;;;;;7405241;19;20369;-76
2023/09/25 00:16:27;;;;;;;11.48;4.25;;;16.60;90.60;;;;;;7383855;19;20011;-76
2023/09/25 00:18:56;;;;;;;10.07;4.25;;;16.60;90.60;;;;;;7385232;19;20268;-76
2023/09/25 00:21:25;;;;;;;7.30;3.58;;;16.50;90.50;;;;;;7384258;19;20036;-76
2023/09/25 00:23:54;;;;;;;12.15;3.95;;;16.50;90.50;;;;;;7384135;19;20006;-75
2023/09/25 00:26:25;;;;;;;9.75;3.88;;;16.50;90.40;;;;;;7405158;19;20024;-76
2023/09/25 00:28:54;;;;;;;9.13;4.15;;;16.50;90.40;;;;;;7388606;19;20215;-76
2023/09/25 00:31:23;;;;;;;13.23;3.95;;;16.40;90.50;;;;;;7383961;19;20015;-75
2023/09/25 00:33:52;;;;;;;9.48;3.70;;;16.40;90.50;;;;;;7384076;19;20019;-75
2023/09/25 00:36:21;;;;;;;14.23;4.53;;;16.30;90.50;;;;;;7383714;19;20046;-76
2023/09/25 00:38:50;;;;;;;8.63;3.92;;;16.40;90.40;;;;;;7384003;19;20015;-76
2023/09/25 00:41:18;;;;;;;8.68;3.72;;;16.30;90.50;;;;;;7404507;19;20031;-75
2023/09/25 00:43:50;;;;;;;7.32;3.55;;;16.30;90.50;;;;;;7381922;19;20019;-75
2023/09/25 00:46:19;;;;;;;4.90;3.35;;;16.30;90.60;;;;;;7381757;19;20003;-75
2023/09/25 00:48:48;;;;;;;11.57;3.97;;;16.30;90.50;;;;;;7383035;19;20006;-76
2023/09/25 00:51:17;;;;;;;13.82;3.60;;;16.30;90.50;;;;;;7382726;19;20066;-76
2023/09/25 00:53:48;;;;;;;10.55;3.40;;;16.30;90.40;;;;;;7383146;19;20249;-75
2023/09/25 00:56:17;;;;;;;14.63;4.20;;;16.30;90.50;;;;;;7404425;19;20417;-76
2023/09/25 00:58:50;;;;;;;10.55;3.90;;;16.30;90.40;;;;;;7381940;19;20231;-75
2023/09/25 01:01:18;;;;;;;;;;;16.20;90.50;;;;;;7383241;19;20365;-76
2023/09/25 01:03:47;;;;;;;8.32;3.53;;;16.20;90.40;;;;;;7383050;19;19907;-75
2023/09/25 01:06:16;;;;;;;8.63;3.78;;;16.20;90.30;;;;;;7380690;19;20405;-75
2023/09/25 01:08:46;;;;;;;10.48;3.67;;;16.20;90.30;;;;;;7382256;19;20027;-75
2023/09/25 01:11:14;;;;;;;6.85;3.50;;;16.20;90.30;;;;;;7403904;19;20011;-75
2023/09/25 01:13:43;;;;;;;5.97;3.22;;;16.20;90.30;;;;;;7381583;19;20082;-76
2023/09/25 01:16:15;;;;;;;11.02;3.28;;;16.20;90.20;;;;;;7382103;19;20066;-75
2023/09/25 01:18:45;;;;;;;6.82;3.58;;;16.10;90.20;;;;;;7381499;19;20003;-75
2023/09/25 01:21:13;;;;;;;8.57;3.38;;;16.10;90.30;;;;;;7381780;19;20358;-76
2023/09/25 01:23:45;;;;;;;5.15;3.58;;;16.00;90.20;;;;;;7381541;19;20135;-75
2023/09/25 01:26:14;;;;;;;9.45;3.10;;;16.00;90.20;;;;;;7402330;19;19999;-75
2023/09/25 01:28:42;;;;;;;6.10;3.13;;;16.00;90.20;;;;;;7381069;19;20259;-75
2023/09/25 01:31:12;;;;;;;11.15;3.50;;;16.00;90.30;;;;;;7381254;19;20015;-75
2023/09/25 01:33:41;;;;;;;13.13;3.63;;;15.90;90.40;;;;;;7381556;19;20011;-75
2023/09/25 01:36:11;;;;;;;19.58;3.25;;;15.90;90.50;;;;;;7381671;19;20016;-75
2023/09/25 01:38:40;;;;;;;7.15;3.25;;;15.90;90.50;;;;;;7381049;19;20361;-75
2023/09/25 01:41:11;;;;;;;11.05;3.50;;;15.90;90.30;;;;;;7402888;19;20017;-75
2023/09/25 01:43:40;;;;;;;8.27;3.42;;;15.80;90.30;;;;;;7381044;19;20242;-75
2023/09/25 01:46:09;;;;;;;6.30;3.08;;;15.80;90.50;;;;;;7381015;19;20010;-76
2023/09/25 01:48:38;;;;;;;6.40;2.83;;;15.80;90.60;;;;;;7381487;19;20240;-75
2023/09/25 01:51:11;;;;;;;10.05;3.03;;;15.80;90.50;;;;;;7381463;19;20007;-75
2023/09/25 01:53:40;;;;;;;10.57;3.17;;;15.80;90.40;;;;;;7381341;19;20007;-75
2023/09/25 01:56:16;;;;;;;6.22;3.10;;;15.80;90.40;;;;;;7402424;19;20031;-76
2023/09/25 01:58:45;;;;;;;10.32;3.33;;;15.80;90.40;;;;;;7380411;19;20016;-75
2023/09/25 02:01:13;;;;;;;13.27;3.53;;;15.80;90.30;;;;;;7380528;19;20068;-75
2023/09/25 02:03:44;;;;;;;4.65;2.90;;;15.80;90.30;;;;;;7380616;19;20019;-76
2023/09/25 02:06:12;;;;;;;14.15;3.13;;;15.90;90.30;;;;;;7381277;19;20002;-75
2023/09/25 02:08:41;;;;;;;8.95;3.05;;;15.90;90.20;;;;;;7380605;19;20006;-75
2023/09/25 02:11:10;;;;;;;4.47;2.58;;;15.80;90.20;;;;;;7401979;19;20028;-75
2023/09/25 02:13:42;;;;;;;13.15;3.17;;;15.80;90.30;;;;;;7379757;19;20027;-76
2023/09/25 02:16:10;;;;;;;6.80;2.75;;;15.80;90.20;;;;;;7380175;19;20010;-75
2023/09/25 02:18:39;;;;;;;8.23;3.00;;;15.70;90.10;;;;;;7376740;19;20284;-75
2023/09/25 02:21:08;;;;;;;7.47;3.33;;;15.70;90.10;;;;;;7380220;19;20020;-75
2023/09/25 02:23:36;;;;;;;5.47;2.80;;;15.60;90.30;;;;;;7379886;19;20014;-75
2023/09/25 02:26:05;;;;;;;8.45;3.13;;;15.70;90.50;;;;;;7400701;19;20027;-75
2023/09/25 02:28:34;;;;;;;8.23;2.90;;;15.60;90.50;;;;;;7379066;19;20062;-75
2023/09/25 02:31:07;;;;;;;14.65;3.28;;;15.60;90.20;;;;;;7379674;19;20007;-76
2023/09/25 02:33:36;;;;;;;7.80;3.38;;;15.60;90.20;;;;;;7378595;19;20014;-76
2023/09/25 02:36:09;;;;;;;14.40;3.45;;;15.50;90.30;;;;;;7379873;19;20014;-76
2023/09/25 02:38:37;;;;;;;7.18;3.13;;;15.50;90.40;;;;;;7379606;19;20014;-75
2023/09/25 02:41:08;;;;;;;12.48;2.92;;;15.50;90.80;;;;;;7400555;19;20521;-75
2023/09/25 02:43:36;;;;;;;12.82;3.63;;;15.50;90.30;;;;;;7378949;19;20002;-75
2023/09/25 02:46:08;;;;;;;10.10;2.97;;;15.60;90.60;;;;;;7379074;19;20202;-75
2023/09/25 02:48:36;;;;;;;11.38;3.13;;;15.60;90.30;;;;;;7380364;19;20006;-76
2023/09/25 02:51:05;;;;;;;8.65;3.08;;;15.50;90.30;;;;;;7386386;19;20010;-75
2023/09/25 02:53:34;;;;;;;9.98;3.45;;;15.60;90.40;;;;;;7385461;19;20011;-75
2023/09/25 02:56:03;;;;;;;4.07;2.75;;;15.50;90.20;;;;;;7406891;19;20010;-76
2023/09/25 02:58:32;;;;;;;6.72;3.35;;;15.50;90.10;;;;;;7384269;19;20031;-75
2023/09/25 03:01:00;;;;;;;5.43;3.20;;;15.50;90.00;;;;;;7379486;19;20010;-75
2023/09/25 03:03:32;;;;;;;5.30;3.15;;;15.50;90.10;;;;;;7379062;19;20039;-75
2023/09/25 03:06:01;;;;;;;7.82;3.28;;;15.50;90.10;;;;;;7378716;19;20031;-75
2023/09/25 03:08:30;;;;;;;6.50;3.33;;;15.40;90.00;;;;;;7376980;19;20007;-76
2023/09/25 03:10:59;;;;;;;9.32;3.85;;;15.50;90.10;;;;;;7401594;19;20006;-75
2023/09/25 03:13:27;;;;;;;13.68;3.50;;;15.50;90.10;;;;;;7377423;19;20370;-75
2023/09/25 03:15:56;;;;;;;12.35;3.85;;;15.40;90.10;;;;;;7379172;19;20013;-75
2023/09/25 03:18:25;;;;;;;5.53;3.10;;;15.40;90.00;;;;;;7377552;19;20002;-75
2023/09/25 03:20:56;;;;;;;11.32;3.70;;;15.40;90.10;;;;;;7378478;19;20011;-74
2023/09/25 03:23:25;;;;;;;7.38;3.10;;;15.40;90.10;;;;;;7399704;19;20010;-75
2023/09/25 03:25:54;;;;;;;6.93;2.75;;;15.40;90.10;;;;;;7376733;19;20003;-74
2023/09/25 03:28:22;;;;;;;9.60;3.47;;;15.40;90.10;;;;;;7375402;19;20007;-74
2023/09/25 03:30:51;;;;;;;7.82;3.42;;;15.40;90.00;;;;;;7375740;19;20011;-75
2023/09/25 03:33:21;;;;;;;8.10;3.15;;;15.40;90.10;;;;;;7377757;19;20019;-76
2023/09/25 03:35:49;;;;;;;7.70;3.20;;;15.40;90.10;;;;;;7377678;19;20014;-75
2023/09/25 03:38:21;;;;;;;10.32;3.35;;;15.40;90.10;;;;;;7399085;19;20015;-75
2023/09/25 03:40:49;;;;;;;10.10;3.17;;;15.30;90.10;;;;;;7376606;19;20292;-75
2023/09/25 03:43:18;;;;;;;11.00;3.63;;;15.40;90.50;;;;;;7380648;19;20015;-75
2023/09/25 03:45:47;;;;;;;9.00;3.55;;;15.30;90.00;;;;;;7377294;19;20006;-75
2023/09/25 03:48:16;;;;;;;19.00;3.42;;;15.30;89.80;;;;;;7376719;19;19999;-75
2023/09/25 03:50:44;;;;;;;8.25;3.42;;;15.30;90.00;;;;;;7377463;19;20018;-75
2023/09/25 03:53:13;;;;;;;6.07;3.13;;;15.20;90.00;;;;;;7398921;19;20011;-75
2023/09/25 03:55:45;;;;;;;9.57;3.55;;;15.20;90.10;;;;;;7376158;19;20078;-75
2023/09/25 03:58:13;;;;;;;;;;;15.20;90.10;;;;;;7377060;19;20377;-75
2023/09/25 04:00:43;;;;;;;4.95;2.83;;;15.20;90.10;;;;;;7376552;19;19910;-75
2023/09/25 04:03:11;;;;;;;6.53;2.78;;;15.20;90.00;;;;;;7377288;19;20010;-75
2023/09/25 04:05:40;;;;;;;5.35;3.20;;;15.20;90.00;;;;;;7377081;19;20042;-75
2023/09/25 04:08:09;;;;;;;7.20;3.45;;;15.20;90.10;;;;;;7400898;19;20260;-75
2023/09/25 04:10:38;;;;;;;7.28;3.42;;;15.10;90.20;;;;;;7376101;19;20010;-75
2023/09/25 04:13:11;;;;;;;7.35;2.92;;;15.10;90.20;;;;;;7376202;19;20020;-75
2023/09/25 04:15:40;;;;;;;8.38;3.17;;;15.10;90.20;;;;;;7376644;19;20003;-76
2023/09/25 04:18:09;;;;;;;7.20;3.47;;;15.10;90.00;;;;;;7376410;19;20051;-76
2023/09/25 04:20:39;;;;;;;6.70;2.97;;;15.10;90.00;;;;;;7376800;19;20011;-75
2023/09/25 04:23:08;;;;;;;16.40;3.85;;;15.10;90.10;;;;;;7395930;19;20032;-76
2023/09/25 04:25:37;;;;;;;9.10;3.72;;;15.10;90.30;;;;;;7375704;19;20378;-75
2023/09/25 04:28:11;;;;;;;11.68;3.70;;;15.00;90.40;;;;;;7374923;19;20106;-75
2023/09/25 04:30:41;;;;;;;6.15;3.50;;;15.00;90.50;;;;;;7376537;19;20259;-75
2023/09/25 04:33:09;;;;;;;13.43;3.78;;;15.00;90.50;;;;;;7376453;19;20016;-74
2023/09/25 04:35:39;;;;;;;6.78;3.42;;;15.00;90.60;;;;;;7376185;19;20319;-75
2023/09/25 04:38:08;;;;;;;13.75;3.50;;;15.00;90.40;;;;;;7397775;19;20031;-75
2023/09/25 04:40:36;;;;;;;10.60;3.65;;;15.00;90.30;;;;;;7375233;19;20365;-75
2023/09/25 04:43:06;;;;;;;11.85;3.50;;;15.00;90.10;;;;;;7381743;19;20006;-75
2023/09/25 04:45:37;;;;;;;8.52;3.20;;;15.00;90.10;;;;;;7383453;19;20040;-75
2023/09/25 04:48:06;;;;;;;10.55;3.38;;;15.00;90.10;;;;;;7382829;19;20115;-76
2023/09/25 04:50:37;;;;;;;7.25;3.47;;;15.00;90.10;;;;;;7383657;19;20007;-75
2023/09/25 04:53:08;;;;;;;8.85;3.47;;;15.00;90.10;;;;;;7405201;19;20011;-76
2023/09/25 04:55:38;;;;;;;12.45;4.10;;;15.00;90.10;;;;;;7383645;19;20349;-75
2023/09/25 04:58:07;;;;;;;11.18;3.70;;;14.90;90.10;;;;;;7382878;19;20023;-75
2023/09/25 05:00:39;;;;;;;7.70;3.85;;;15.00;90.40;;;;;;7383198;19;20014;-75
2023/09/25 05:03:07;;;;;;;9.95;3.60;;;14.90;90.10;;;;;;7383962;19;20600;-75
2023/09/25 05:05:36;;;;;;;8.07;3.85;;;14.90;90.00;;;;;;7384282;19;20023;-75
2023/09/25 05:08:05;;;;;;;7.68;3.70;;;14.80;90.50;;;;;;7402627;19;20396;-75
2023/09/25 05:10:35;;;;;;;8.73;3.20;;;14.80;90.20;;;;;;7381999;19;20055;-75
2023/09/25 05:13:03;;;;;;;8.68;3.60;;;14.80;90.30;;;;;;7382133;19;20040;-75
2023/09/25 05:15:32;;;;;;;11.40;3.92;;;14.80;90.30;;;;;;7382367;19;20002;-75
2023/09/25 05:18:04;;;;;;;6.00;3.13;;;14.80;90.30;;;;;;7381562;19;20370;-75
2023/09/25 05:20:34;;;;;;;7.32;3.30;;;14.80;90.30;;;;;;7381621;19;20376;-75
2023/09/25 05:23:03;;;;;;;8.45;3.50;;;14.90;90.50;;;;;;7403659;19;20059;-75
2023/09/25 05:25:32;;;;;;;11.77;3.67;;;14.90;90.30;;;;;;7381256;19;20003;-74
2023/09/25 05:28:01;;;;;;;10.82;3.97;;;14.80;90.20;;;;;;7381268;19;20002;-74
2023/09/25 05:30:30;;;;;;;11.45;3.67;;;14.80;90.20;;;;;;7381915;19;20401;-75
2023/09/25 05:32:59;;;;;;;7.88;3.47;;;14.80;90.20;;;;;;7381930;19;20051;-74
2023/09/25 05:35:32;;;;;;;11.50;4.07;;;14.80;90.20;;;;;;7400117;19;20369;-74
2023/09/25 05:38:01;;;;;;;9.55;3.47;;;14.80;90.20;;;;;;7404159;19;20024;-75
2023/09/25 05:40:30;;;;;;;9.48;3.97;;;14.80;90.20;;;;;;7382462;19;20031;-75
2023/09/25 05:42:59;;;;;;;6.72;3.72;;;14.80;90.20;;;;;;7381854;19;20011;-75
2023/09/25 05:45:28;;;;;;;7.53;3.17;;;14.80;90.20;;;;;;7382884;19;20010;-75
2023/09/25 05:47:56;;;;;;;8.73;4.53;;;14.80;90.00;;;;;;7382916;19;20003;-75
2023/09/25 05:50:26;;;;;;;15.45;4.00;;;14.70;89.90;;;;;;7403260;19;20013;-75
2023/09/25 05:52:57;;;;;;;8.70;3.63;;;14.70;90.10;;;;;;7380870;19;20003;-76
2023/09/25 05:55:26;;;;;;;13.43;3.88;;;14.70;90.50;;;;;;7381252;19;20019;-74
2023/09/25 05:57:55;;;;;;;9.38;4.22;;;14.70;90.20;;;;;;7381221;19;20003;-75
2023/09/25 06:00:24;;;;;;;14.88;3.70;;;14.70;90.20;;;;;;7382831;19;20023;-74
2023/09/25 06:02:54;;;;;;;10.20;3.42;;;14.70;90.20;;;;;;7381676;19;20014;-75
2023/09/25 06:05:23;;;;;;;10.25;4.28;;;14.70;90.20;;;;;;7403283;19;20007;-75
2023/09/25 06:07:51;;;;;;;9.38;4.30;;;14.70;90.10;;;;;;7380106;19;20010;-75
2023/09/25 06:10:23;;;;;;;6.18;3.80;;;14.80;90.20;;;;;;7380555;19;20019;-74
2023/09/25 06:19:12;;;;;;;8.67;3.77;;;14.80;90.20;;;;;;7378226;19;20002;-75
2023/09/25 06:21:41;;;;;;;13.43;4.32;;;14.90;90.10;;;;;;7378382;19;20007;-75
2023/09/25 06:24:12;;;;;;;16.45;4.05;;;14.90;90.20;;;;;;7377448;19;20007;-75
2023/09/25 06:26:46;;;;;;;;;;;14.90;90.20;;;;;;7378845;19;20010;-75
2023/09/25 06:29:16;;;;;;;13.77;3.72;;;15.00;90.30;;;;;;7398799;19;19907;-75
2023/09/25 06:31:45;;;;;;;9.75;4.05;;;14.90;90.20;;;;;;7376931;19;20010;-75
2023/09/25 06:34:13;;;;;;;14.98;3.60;;;15.00;90.40;;;;;;7377646;19;20007;-75
2023/09/25 06:36:42;;;;;;;17.90;4.60;;;15.00;90.40;;;;;;7378703;19;20007;-75
2023/09/25 06:39:11;;;;;;;11.88;4.40;;;15.10;90.50;;;;;;7378266;19;20027;-75
2023/09/25 06:41:43;;;;;;;9.90;4.22;;;15.10;90.50;;;;;;7377863;19;20006;-75
2023/09/25 06:47:29;;;;;;;12.07;4.00;;;15.30;90.70;;;;;;7416902;19;19983;-80
2023/09/25 06:50:05;;;;;;;10.82;4.88;;;15.30;90.70;;;;;;7383729;19;20031;-83
2023/09/25 06:56:02;;;;;;;7.25;3.60;;;15.50;90.80;;;;;;7408466;19;20391;-83
2023/09/25 07:20:01;;;;;;;19.52;4.45;;;16.20;91.60;;;;;;7377817;19;20022;-78
2023/09/25 08:05:03;;;;;;;14.40;4.95;;;17.50;91.00;;;;;;7385639;19;20283;-88
2023/09/25 08:07:34;;;;;;;8.38;4.60;;;17.60;91.00;;;;;;7377936;19;20007;-78
2023/09/25 08:10:03;;;;;;;;;;;17.70;91.00;;;;;;7380208;19;20040;-78
2023/09/25 08:12:32;;;;;;;10.48;4.55;;;17.80;90.90;;;;;;7378108;19;19920;-78
2023/09/25 08:15:01;;;;;;;7.88;4.28;;;17.80;90.70;;;;;;7376739;19;20007;-79
2023/09/25 08:17:29;;;;;;;17.23;4.93;;;17.90;90.60;;;;;;7379353;19;20002;-79
2023/09/25 08:19:59;;;;;;;18.52;7.97;;;17.90;90.60;;;;;;7406491;19;20032;-80
2023/09/25 08:22:32;;;;;;;17.92;5.90;;;18.00;90.80;;;;;;7387894;19;20040;-80
2023/09/25 08:34:37;;;;;;;17.97;4.80;;;18.10;90.70;;;;;;7387585;19;20299;-82
2023/09/25 08:40:55;;;;;;;9.37;4.03;;;18.20;90.70;;;;;;7394563;19;20003;-82
2023/09/25 08:43:34;;;;;;;13.32;3.88;;;18.20;90.50;;;;;;7386751;19;20215;-83
2023/09/25 08:46:06;;;;;;;7.13;3.67;;;18.20;90.50;;;;;;7413658;19;20028;-83
2023/09/25 09:04:33;;;;;;;11.30;3.83;;;18.60;90.60;;;;;;7321674;19;20504;-81
2023/09/25 09:24:15;;;;;;;19.20;3.70;;;18.90;90.50;;;;;;7341948;19;20010;-83
2023/09/25 09:27:23;;;;;;;13.45;3.65;;;18.90;90.20;;;;;;7284155;19;2004448;-83
2023/09/25 09:29:57;;;;;;;15.02;3.30;;;19.00;90.20;;;;;;7383178;19;20035;-79
2023/09/25 09:32:29;;;;;;;11.80;3.40;;;19.00;90.10;;;;;;7406135;19;20011;-80
2023/09/25 09:44:50;;;;;;;11.67;3.53;;;19.40;89.50;;;;;;7354061;19;20017;-80
2023/09/25 09:47:23;;;;;;;11.30;3.58;;;19.40;89.60;;;;;;7392505;19;20023;-77
2023/09/25 09:49:52;;;;;;;13.20;3.38;;;19.50;89.60;;;;;;7400672;19;20038;-80
2023/09/25 10:05:52;;;;;;;12.05;3.78;;;19.80;89.40;;;;;;7298938;19;2004597;-84
2023/09/25 10:08:21;;;;;;;9.43;3.17;;;19.80;89.60;;;;;;7381048;19;20017;-78
2023/09/25 10:20:08;;;;;;;14.43;3.55;;;19.80;89.70;;;;;;7381270;19;20011;-79
2023/09/25 10:22:39;;;;;;;11.02;3.92;;;19.90;89.50;;;;;;7400626;19;20075;-78
2023/09/25 10:25:15;;;;;;;7.72;2.90;;;19.90;89.70;;;;;;7380811;19;20010;-78
2023/09/25 10:27:47;;;;;;;15.32;3.25;;;19.90;89.20;;;;;;7381378;19;20114;-79
2023/09/25 10:31:01;;;;;;;10.02;3.35;;;20.00;89.40;;;;;;7380578;19;20015;-84
2023/09/25 10:33:31;;;;;;;8.95;3.03;;;20.00;89.70;;;;;;7379840;19;20002;-76
2023/09/25 10:36:04;;;;;;;6.95;3.28;;;20.00;88.90;;;;;;7378503;19;20066;-78
2023/09/25 10:38:38;;;;;;;12.68;3.25;;;20.10;89.40;;;;;;7377967;19;20016;-76
2023/09/25 10:41:08;;;;;;;17.02;3.55;;;20.10;89.60;;;;;;7403095;19;20074;-77
2023/09/25 10:47:11;;;;;;;10.73;3.20;;;20.20;89.50;;;;;;7379778;19;20256;-80
2023/09/25 10:50:18;;;;;;;8.88;3.15;;;20.30;90.00;;;;;;7377130;19;20007;-80
2023/09/25 10:52:57;;;;;;;8.02;3.22;;;20.40;90.00;;;;;;7378710;19;20062;-80
2023/09/25 10:55:43;;;;;;;8.38;3.47;;;20.50;89.90;;;;;;7380487;19;20013;-80
2023/09/25 10:58:23;;;;;;;7.70;2.80;;;20.60;90.00;;;;;;7380528;19;20003;-80
2023/09/25 11:01:24;;;;;;;13.32;3.00;;;20.60;90.40;;;;;;7379071;19;20239;-81
2023/09/25 11:04:02;;;;;;;;;;;20.70;90.50;;;;;;7379997;19;20026;-81
2023/09/25 11:06:38;;;;;;;12.93;3.05;;;20.70;90.60;;;;;;7378501;19;20572;-80
2023/09/25 11:09:17;;;;;;;12.48;2.90;;;20.60;90.70;;;;;;7378227;19;20013;-81
2023/09/25 11:11:51;;;;;;;12.15;2.83;;;20.60;90.70;;;;;;7379963;19;20015;-81
2023/09/25 11:14:25;;;;;;;10.45;2.92;;;20.60;90.90;;;;;;7400696;19;20254;-80
2023/09/25 11:17:01;;;;;;;15.93;2.70;;;20.60;91.20;;;;;;7379125;19;20029;-80
2023/09/25 11:19:32;;;;;;;11.15;3.08;;;20.60;91.40;;;;;;7378954;19;20267;-80
2023/09/25 11:22:05;;;;;;;6.85;2.55;;;20.60;91.30;;;;;;7378308;19;20006;-80
2023/09/25 11:24:52;;;;;;;5.45;2.47;;;20.70;91.40;;;;;;7380446;19;20003;-80
2023/09/25 11:27:25;;;;;;;9.35;2.45;;;20.70;91.40;;;;;;7383052;19;20002;-80
2023/09/25 11:29:56;;;;;;;10.23;3.20;;;20.70;91.80;;;;;;7402149;19;20011;-81
2023/09/25 11:35:22;;;;;;;8.43;2.70;;;21.00;91.70;;;;;;7381982;19;20011;-82
2023/09/25 11:38:02;;;;;;;12.13;2.80;;;21.20;91.80;;;;;;7387863;19;20006;-83
2023/09/25 11:43:35;;;;;;;11.10;3.00;;;21.30;91.30;;;;;;7363049;19;20014;-84
2023/09/25 11:46:06;;;;;;;14.18;3.42;;;21.30;91.40;;;;;;7421455;19;20038;-77
2023/09/25 11:48:40;;;;;;;10.45;3.10;;;21.40;91.10;;;;;;7400109;19;20007;-79
2023/09/25 11:51:08;;;;;;;12.93;3.00;;;21.50;91.00;;;;;;7417451;19;20003;-77
2023/09/25 11:53:37;;;;;;;7.63;2.60;;;21.50;90.80;;;;;;7398074;19;20010;-78
2023/09/25 12:18:10;;;;;;;12.13;2.83;;;21.60;90.90;;;;;;7314618;19;20019;-76
2023/09/25 12:20:44;;;;;;;10.95;2.65;;;21.60;91.00;;;;;;7386162;19;20069;-75
2023/09/25 12:23:16;;;;;;;15.52;3.33;;;21.70;90.70;;;;;;7386111;19;20003;-74
2023/09/25 12:25:45;;;;;;;8.10;2.58;;;21.80;90.70;;;;;;7390797;19;20014;-74
2023/09/25 12:28:17;;;;;;;10.15;3.03;;;21.80;90.00;;;;;;7389240;19;20003;-76
2023/09/25 12:30:49;;;;;;;7.70;2.75;;;21.90;89.80;;;;;;7386816;19;20007;-79
2023/09/25 12:33:21;;;;;;;6.85;2.95;;;22.00;89.20;;;;;;7414813;19;20055;-79
2023/09/25 12:35:50;;;;;;;12.40;3.20;;;22.10;88.70;;;;;;7390259;19;20006;-77
2023/09/25 12:38:19;;;;;;;9.98;3.03;;;22.10;88.60;;;;;;7388867;19;20074;-78
2023/09/25 12:40:48;;;;;;;12.23;2.72;;;22.20;88.00;;;;;;7387647;19;20003;-77
2023/09/25 12:43:17;;;;;;;10.45;2.70;;;22.20;87.60;;;;;;7385460;19;20026;-76
2023/09/25 12:45:46;;;;;;;19.92;3.40;;;22.30;87.70;;;;;;7387564;19;20011;-75
2023/09/25 12:48:15;;;;;;;10.00;2.72;;;22.40;87.40;;;;;;7409226;19;20062;-76
2023/09/25 13:00:23;;;;;;;8.77;3.10;;;22.70;86.30;;;;;;7386327;19;20003;-80
2023/09/25 13:02:53;;;;;;;12.43;2.92;;;22.80;86.60;;;;;;7386794;19;20011;-78
2023/09/25 13:22:53;;;;;;;5.70;2.15;;;23.50;86.50;;;;;;7388179;19;20011;-79
2023/09/25 13:25:27;;;;;;;10.05;2.28;;;23.60;86.40;;;;;;7387228;19;20013;-81
2023/09/25 13:46:04;;;;;;;5.55;2.47;;;23.80;85.20;;;;;;7353847;19;20025;-79
2023/09/25 13:53:47;;;;;;;12.23;2.35;;;23.50;86.60;;;;;;7374307;19;20003;-80
2023/09/25 13:56:39;;;;;;;10.15;2.72;;;23.30;87.10;;;;;;7397248;19;20031;-83
2023/09/25 14:29:53;;;;;;;3.22;1.52;;;22.50;90.80;;;;;;7402982;19;20007;-80
2023/09/25 14:51:10;;;;;;;;;;;;;;;;;;;;;
2023/09/25 14:53:39;;;;;;;8.68;2.00;;;22.60;90.90;;;;;;7383246;19;20007;-78
2023/09/25 15:09:49;;;;;;;8.80;1.80;;;22.70;90.40;;;;;;7381325;19;19995;-81
2023/09/25 15:12:25;;;;;;;3.78;1.90;;;22.70;90.40;;;;;;7279020;19;2004507;-80
2023/09/25 15:32:48;;;;;;;3.17;1.35;;;22.90;90.00;;;;;;7356570;19;20382;-81
2023/09/25 15:55:55;;;;;;;2.67;1.48;;;22.90;89.50;;;;;;7423949;19;20392;-82
2023/09/25 15:58:25;;;;;;;4.32;1.80;;;22.90;89.70;;;;;;7423845;19;20366;-80
2023/09/25 16:00:55;;;;;;;3.47;2.03;;;22.90;89.60;;;;;;7426305;19;20009;-78
2023/09/25 16:03:24;;;;;;;4.10;1.60;;;22.80;90.00;;;;;;7431523;19;20014;-79
2023/09/25 16:05:53;;;;;;;4.70;2.10;;;22.80;91.50;;;;;;7448086;19;20011;-79
2023/09/25 16:08:22;;;;;;;5.47;1.83;;;22.80;92.10;;;;;;7421087;19;20027;-80
2023/09/25 16:18:03;;;;;;;;;;;;;;;;;;;;;
2023/09/25 16:21:23;;;;;;;;;;;;;;;;;;;;;
2023/09/25 16:24:32;;;;;;;10.43;2.72;;;22.70;91.80;;;;;;7418260;19;20909;-85
2023/09/25 16:27:20;;;;;;;;;;;;;;;;;;;;;
2023/09/25 16:38:32;;;;;;;10.48;2.45;;;22.70;93.00;;;;;;7421750;19;20362;-80
2023/09/25 16:41:16;;;;;;;10.80;2.78;;;22.60;93.10;;;;;;7442804;19;20015;-80
2023/09/25 16:44:00;;;;;;;6.93;2.42;;;22.60;93.50;;;;;;7420437;19;20010;-80
2023/09/25 16:46:42;;;;;;;;;;;;;;;;;;;;;
2023/09/25 16:49:43;;;;;;;;;;;;;;;;;;;;;
2023/09/25 16:52:47;;;;;;;;;;;;;;;;;;;;;
2023/09/25 16:55:47;;;;;;;8.10;2.47;;;22.60;94.10;;;;;;7441293;19;19921;-81
2023/09/25 16:58:28;;;;;;;;;;;;;;;;;;;;;
2023/09/25 17:05:06;;;;;;;;;;;;;;;;;;;;;
2023/09/25 17:24:53;;;;;;;;;;;;;;;;;;;;;
2023/09/25 17:28:06;;;;;;;;;;;;;;;;;;;;;
2023/09/25 17:31:04;;;;;;;8.98;2.00;;;22.10;94.00;;;;;;7316058;19;2020471;-82
2023/09/25 17:33:47;;;;;;;;;;;;;;;;;;;;;
2023/09/25 17:36:47;;;;;;;3.80;1.80;;;22.00;94.50;;;;;;7438847;19;20002;-80
2023/09/25 17:59:55;;;;;;;7.05;2.35;;;22.00;93.80;;;;;;7418511;19;20007;-81
2023/09/25 18:02:43;;;;;;;;;;;;;;;;;;;;;
2023/09/25 18:05:43;;;;;;;;;;;;;;;;;;;;;
2023/09/25 18:08:52;;;;;;;7.67;2.13;;;22.00;93.90;;;;;;7415425;19;20839;-81
2023/09/25 18:11:53;;;;;;;8.55;1.90;;;21.90;93.90;;;;;;7414875;19;20010;-81
2023/09/25 18:15:07;;;;;;;2.42;1.55;;;21.90;94.30;;;;;;7435028;19;20006;-82
2023/09/25 18:40:47;;;;;;;;;;;;;;;;;;;;;
2023/09/25 18:43:23;;;;;;;4.90;1.50;;;21.70;94.40;;;;;;7418803;19;20349;-83
2023/09/25 19:09:57;;;;;;;4.67;1.77;;;21.50;94.60;;;;;;6206423;19;3128979;-82
2023/09/25 19:12:59;;;;;;;;;;;;;;;;;;;;;
2023/09/25 19:15:43;;;;;;;;;;;;;;;;;;;;;
2023/09/25 19:18:47;;;;;;;3.95;2.20;;;21.20;94.80;;;;;;7442324;19;20290;-82
2023/09/25 19:38:15;;;;;;;;;;;;;;;;;;;;;
2023/09/25 19:44:03;;;;;;;3.88;1.80;;;20.80;94.90;;;;;;7418999;19;20258;-81
2023/09/25 19:56:08;;;;;;;;;;;;;;;;;;;;;
2023/09/25 19:59:29;;;;;;;9.52;2.05;;;20.60;95.10;;;;;;7418689;19;20022;-82
2023/09/25 20:02:10;;;;;;;;;;;;;;;;;;;;;
2023/09/25 20:04:52;;;;;;;;;;;;;;;;;;;;;
2023/09/25 20:08:02;;;;;;;13.50;7.72;;;20.50;95.20;;;;;;7421155;19;20006;-82
2023/09/25 20:24:44;;;;;;;9.55;2.70;;;20.40;95.30;;;;;;1298854;19;66120269;-83
2023/09/25 20:28:10;;;;;;;;;;;;;;;;;;;;;
2023/09/25 20:47:52;;;;;;;5.07;2.10;;;20.20;95.30;;;;;;6106404;19;3083333;-82
2023/09/25 20:50:55;;;;;;;8.00;2.40;;;20.20;95.20;;;;;;7421150;19;20014;-83
2023/09/25 21:00:01;;;;;;;4.95;2.40;;;20.10;95.50;;;;;;7417618;19;20011;-83
2023/09/25 21:32:39;;;;;;;8.57;2.53;;;19.90;95.20;;;;;;7420372;19;20015;-81
2023/09/25 21:35:21;;;;;;;;;;;;;;;;;;;;;
2023/09/25 21:38:13;;;;;;;;;;;;;;;;;;;;;
2023/09/25 21:40:55;;;;;;;6.85;2.78;;;19.90;95.20;;;;;;7424185;19;20018;-81
2023/09/25 21:43:40;;;;;;;4.68;2.60;;;19.90;95.30;;;;;;7426369;19;20015;-80
2023/09/25 21:46:35;;;;;;;5.47;2.45;;;19.90;95.20;;;;;;7426969;19;20002;-81
2023/09/25 21:49:53;;;;;;;;;;;;;;;;;;;;;
2023/09/25 21:53:10;;;;;;;9.73;3.05;;;19.80;95.10;;;;;;7419246;19;20070;-81
2023/09/25 21:56:10;;;;;;;;;;;;;;;;;;;;;
2023/09/25 21:58:40;;;;;;;13.77;3.22;;;19.80;95.10;;;;;;7422432;19;20027;-82
2023/09/25 22:01:13;;;;;;;8.13;2.88;;;19.70;95.10;;;;;;7424736;19;20002;-82
2023/09/25 22:03:44;;;;;;;9.93;3.03;;;19.80;95.00;;;;;;7425938;19;19999;-81
2023/09/25 22:06:18;;;;;;;9.20;2.80;;;19.70;94.90;;;;;;7444302;19;20417;-82
2023/09/25 22:08:47;;;;;;;10.43;2.78;;;19.70;95.00;;;;;;7426358;19;20023;-80
2023/09/25 22:11:19;;;;;;;5.78;2.60;;;19.70;94.90;;;;;;7423377;19;20070;-80
2023/09/25 22:13:50;;;;;;;10.63;2.85;;;19.70;95.00;;;;;;7426539;19;19998;-80
2023/09/25 22:16:19;;;;;;;5.65;2.70;;;19.70;95.10;;;;;;7402898;19;20245;-81
2023/09/25 22:18:48;;;;;;;6.90;3.00;;;19.70;95.00;;;;;;7396068;19;20002;-81
2023/09/25 22:21:23;;;;;;;9.45;2.42;;;19.70;94.90;;;;;;7419716;19;20043;-82
2023/09/25 22:23:54;;;;;;;9.15;2.90;;;19.60;94.80;;;;;;7397389;19;20023;-81
2023/09/25 22:26:23;;;;;;;17.67;3.17;;;19.60;94.90;;;;;;7393249;19;20006;-82
2023/09/25 22:28:52;;;;;;;7.72;3.10;;;19.60;94.80;;;;;;7395264;19;20006;-84
2023/09/25 22:31:22;;;;;;;5.38;2.88;;;19.60;94.80;;;;;;7394739;19;20013;-81
2023/09/25 22:33:52;;;;;;;12.68;2.78;;;19.60;94.90;;;;;;7398204;19;20046;-81
2023/09/25 22:36:25;;;;;;;8.85;2.75;;;19.50;94.90;;;;;;7419437;19;20107;-81
2023/09/25 22:39:02;;;;;;;16.42;2.88;;;19.50;95.10;;;;;;7398499;19;20014;-81
2023/09/25 22:41:33;;;;;;;12.10;2.75;;;19.50;95.20;;;;;;7397873;19;20257;-81
2023/09/25 22:44:01;;;;;;;7.33;2.73;;;19.50;95.10;;;;;;7394974;19;20014;-81
2023/09/25 22:46:30;;;;;;;6.53;3.40;;;19.50;95.00;;;;;;7396057;19;20014;-82
2023/09/25 22:49:02;;;;;;;5.25;3.00;;;19.50;94.90;;;;;;7395182;19;20010;-81
2023/09/25 22:51:34;;;;;;;7.53;3.05;;;19.50;95.00;;;;;;7397518;19;20010;-82